createdAt,value
2022-10-29T07:27:02.860Z,14.00
2022-10-29T07:29:30.688Z,14.00
2022-10-29T07:32:00.113Z,14.00
2022-10-29T07:34:27.981Z,14.00
2022-10-29T07:36:55.777Z,14.00
2022-10-29T07:39:23.677Z,14.00
2022-10-29T07:41:54.066Z,14.00
2022-10-29T07:44:25.832Z,14.10
2022-10-29T07:46:55.555Z,14.10
2022-10-29T07:49:23.321Z,14.10
2022-10-29T07:51:51.110Z,14.10
2022-10-29T07:54:18.909Z,14.10
2022-10-29T07:56:47.839Z,14.10
2022-10-29T07:59:17.739Z,14.10
2022-10-29T08:01:47.197Z,14.10
2022-10-29T08:04:15.129Z,14.20
2022-10-29T08:06:43.004Z,14.20
2022-10-29T08:09:12.066Z,14.20
2022-10-29T08:11:40.121Z,14.20
2022-10-29T08:14:07.975Z,14.20
2022-10-29T08:16:35.848Z,14.30
2022-10-29T08:19:05.003Z,14.30
2022-10-29T08:21:32.846Z,14.30
2022-10-29T08:24:00.668Z,14.30
2022-10-29T08:26:28.470Z,14.40
2022-10-29T08:28:56.314Z,14.40
2022-10-29T08:31:24.159Z,14.40
2022-10-29T08:33:51.955Z,14.40
2022-10-29T08:36:21.088Z,14.50
2022-10-29T08:38:49.215Z,14.50
2022-10-29T08:41:36.816Z,14.50
2022-10-29T08:44:55.578Z,14.50
2022-10-29T08:47:25.011Z,14.60
2022-10-29T08:50:02.868Z,14.60
2022-10-29T08:52:36.436Z,14.70
2022-10-29T08:55:08.777Z,14.90
2022-10-29T08:57:43.540Z,15.00
2022-10-29T09:00:17.616Z,15.00
2022-10-29T09:02:45.562Z,15.10
2022-10-29T09:05:15.120Z,15.10
2022-10-29T09:08:02.684Z,15.10
2022-10-29T09:10:38.381Z,15.10
2022-10-29T09:13:22.074Z,15.10
2022-10-29T09:16:15.213Z,15.10
2022-10-29T09:19:20.475Z,15.20
2022-10-29T09:22:00.036Z,15.20
2022-10-29T09:24:37.016Z,15.30
2022-10-29T09:27:10.827Z,15.30
2022-10-29T09:29:53.480Z,15.30
2022-10-29T09:32:25.628Z,15.30
2022-10-29T09:34:58.050Z,15.40
2022-10-29T09:37:33.656Z,15.40
2022-10-29T09:40:07.160Z,15.40
2022-10-29T09:42:38.674Z,15.50
2022-10-29T09:45:09.342Z,15.50
2022-10-29T09:47:46.307Z,15.50
2022-10-29T09:50:20.569Z,15.60
2022-10-29T09:52:50.327Z,15.60
2022-10-29T09:55:24.111Z,15.60
2022-10-29T09:57:52.312Z,15.70
2022-10-29T10:00:23.510Z,15.70
2022-10-29T10:02:55.873Z,15.70
2022-10-29T10:05:27.539Z,15.80
2022-10-29T10:08:11.000Z,15.80
2022-10-29T10:10:54.467Z,15.90
2022-10-29T10:13:27.354Z,16.00
2022-10-29T10:15:57.759Z,16.00
2022-10-29T10:18:27.271Z,16.10
2022-10-29T10:21:04.902Z,16.20
2022-10-29T10:23:41.734Z,16.20
2022-10-29T10:26:29.724Z,16.20
2022-10-29T10:29:11.959Z,16.30
2022-10-29T10:31:40.409Z,16.30
2022-10-29T16:41:13.113Z,19.20
2022-10-29T16:43:41.180Z,19.10
2022-10-29T16:46:09.320Z,19.10
2022-10-29T16:48:37.414Z,19.00
2022-10-29T16:51:05.911Z,19.00
2022-10-29T16:53:34.022Z,19.00
2022-10-29T16:56:02.539Z,19.00
2022-10-29T16:58:31.755Z,19.00
2022-10-29T17:01:07.189Z,19.00
2022-10-29T17:03:35.526Z,18.90
2022-10-29T17:06:06.161Z,18.90
2022-10-29T17:08:34.877Z,18.90
2022-10-29T17:11:05.877Z,18.90
2022-10-29T17:13:35.408Z,18.90
2022-10-29T17:16:07.406Z,18.90
2022-10-29T17:18:35.341Z,18.80
2022-10-29T17:21:03.625Z,18.80
2022-10-29T17:23:32.200Z,18.80
2022-10-29T17:26:00.116Z,18.80
2022-10-29T17:28:28.704Z,18.80
2022-10-29T17:30:57.923Z,18.70
2022-10-29T17:33:25.813Z,18.70
2022-10-29T17:36:02.222Z,18.70
2022-10-29T17:38:30.056Z,18.70
2022-10-29T17:40:57.896Z,18.60
2022-10-29T17:43:25.891Z,18.60
2022-10-29T17:45:54.149Z,18.60
2022-10-29T17:48:25.096Z,18.60
2022-10-29T17:50:54.165Z,18.50
2022-10-29T17:53:22.372Z,18.50
2022-10-29T17:55:50.197Z,18.50
2022-10-29T17:58:18.334Z,18.50
2022-10-29T18:00:46.675Z,18.40
2022-10-29T18:03:14.622Z,18.40
2022-10-29T18:05:43.930Z,18.40
2022-10-29T18:08:11.805Z,18.40
2022-10-29T18:10:39.623Z,18.30
2022-10-29T18:13:07.429Z,18.30
2022-10-29T18:15:35.265Z,18.30
2022-10-29T18:18:03.067Z,18.30
2022-10-29T18:20:30.897Z,18.30
2022-10-29T18:23:00.632Z,18.20
2022-10-29T18:25:28.857Z,18.30
2022-10-29T18:27:56.863Z,18.20
2022-10-29T18:30:24.962Z,18.20
2022-10-29T18:32:52.910Z,18.20
2022-10-29T18:35:20.780Z,18.20
2022-10-29T18:37:48.595Z,18.20
2022-10-29T18:40:17.825Z,18.10
2022-10-29T18:42:45.620Z,18.10
2022-10-29T18:45:13.392Z,18.10
2022-10-29T18:47:41.241Z,18.10
2022-10-29T18:50:09.466Z,18.00
2022-10-29T18:52:37.310Z,18.10
2022-10-29T18:55:05.652Z,18.00
2022-10-29T18:57:34.861Z,18.00
2022-10-29T19:00:02.710Z,18.00
2022-10-29T19:02:30.581Z,18.00
2022-10-29T19:04:58.478Z,18.00
2022-10-29T19:07:26.324Z,17.90
2022-10-29T19:09:57.165Z,17.90
2022-10-29T19:12:27.776Z,17.90
2022-10-29T19:14:57.264Z,17.90
2022-10-29T19:17:25.403Z,17.90
2022-10-29T19:19:53.245Z,17.90
2022-10-29T19:22:21.217Z,17.80
2022-10-29T19:24:49.150Z,17.80
2022-10-29T19:27:17.228Z,17.80
2022-10-29T19:29:45.034Z,17.80
2022-10-29T19:32:14.193Z,17.70
2022-10-29T19:34:42.041Z,17.70
2022-10-29T19:37:09.875Z,17.70
2022-10-29T19:39:37.692Z,17.70
2022-10-29T19:42:05.728Z,17.60
2022-10-29T19:44:33.527Z,17.60
2022-10-29T19:47:01.323Z,17.60
2022-10-29T19:49:30.499Z,17.60
2022-10-29T19:51:59.647Z,17.60
2022-10-29T19:54:27.484Z,17.50
2022-10-29T19:56:55.281Z,17.50
2022-10-29T19:59:23.145Z,17.50
2022-10-29T20:01:51.037Z,17.50
2022-10-29T20:04:19.011Z,17.50
2022-10-29T20:06:49.014Z,17.40
2022-10-29T20:09:16.800Z,17.40
2022-10-29T20:11:44.646Z,17.40
2022-10-29T20:14:12.511Z,17.40
2022-10-29T20:16:40.951Z,17.40
2022-10-29T20:19:08.798Z,17.40
2022-10-29T20:21:36.644Z,17.30
2022-10-29T20:24:06.113Z,17.30
2022-10-29T20:26:33.922Z,17.30
2022-10-29T20:29:01.789Z,17.20
2022-10-29T20:31:31.663Z,17.30
2022-10-29T20:34:01.732Z,17.20
2022-10-29T20:36:31.322Z,17.20
2022-10-29T20:38:59.429Z,17.20
2022-10-29T20:41:29.221Z,17.20
2022-10-29T20:43:59.094Z,17.20
2022-10-29T20:46:27.230Z,17.10
2022-10-29T20:48:55.103Z,17.10
2022-10-29T20:51:23.753Z,17.10
2022-10-29T20:53:51.960Z,17.10
2022-10-29T20:56:20.673Z,17.10
2022-10-29T20:58:49.861Z,17.10
2022-10-29T21:01:19.517Z,17.10
2022-10-29T21:03:49.767Z,17.00
2022-10-29T21:06:18.502Z,17.00
2022-10-29T21:08:46.414Z,17.00
2022-10-29T21:11:15.406Z,17.00
2022-10-29T21:13:43.316Z,17.00
2022-10-29T21:16:17.093Z,17.00
2022-10-29T21:18:46.891Z,16.90
2022-10-29T21:21:14.827Z,16.90
2022-10-29T21:23:42.915Z,16.90
2022-10-29T21:26:12.820Z,16.90
2022-10-29T21:28:40.611Z,16.90
2022-10-29T21:31:08.552Z,16.90
2022-10-29T21:33:37.880Z,16.90
2022-10-29T21:36:06.205Z,16.90
2022-10-29T21:38:34.571Z,16.90
2022-10-29T21:41:02.962Z,16.90
2022-10-29T21:43:31.046Z,16.80
2022-10-29T21:45:59.091Z,16.80
2022-10-29T21:48:27.644Z,16.80
2022-10-29T21:51:02.387Z,16.80
2022-10-29T21:53:30.847Z,16.80
2022-10-29T21:55:59.204Z,16.80
2022-10-29T21:58:27.619Z,16.80
2022-10-29T22:01:04.015Z,16.80
2022-10-29T22:03:32.889Z,16.70
2022-10-29T22:06:10.738Z,16.80
2022-10-29T22:08:39.065Z,16.70
2022-10-29T22:11:07.218Z,16.70
2022-10-29T22:13:35.909Z,16.70
2022-10-29T22:16:04.991Z,16.70
2022-10-29T22:18:33.330Z,16.60
2022-10-29T22:21:08.732Z,16.60
2022-10-29T22:23:38.157Z,16.70
2022-10-29T22:26:08.037Z,16.60
2022-10-29T22:28:35.819Z,16.60
2022-10-29T22:31:05.267Z,16.60
2022-10-29T22:33:33.876Z,16.60
2022-10-29T22:36:09.326Z,16.60
2022-10-29T22:38:37.605Z,16.50
2022-10-29T22:41:07.363Z,16.60
2022-10-29T22:43:35.375Z,16.50
2022-10-29T22:46:04.057Z,16.60
2022-10-29T22:48:32.129Z,16.50
2022-10-29T22:51:01.219Z,16.50
2022-10-29T22:53:30.574Z,16.50
2022-10-29T22:55:58.358Z,16.50
2022-10-29T22:58:26.155Z,16.50
2022-10-29T23:01:03.206Z,16.40
2022-10-29T23:03:31.049Z,16.40
2022-10-29T23:05:58.926Z,16.40
2022-10-29T23:08:26.817Z,16.40
2022-10-29T23:10:56.554Z,16.30
2022-10-29T23:13:24.457Z,16.30
2022-10-29T23:15:53.462Z,16.30
2022-10-29T23:18:21.286Z,16.30
2022-10-29T23:20:49.070Z,16.30
2022-10-29T23:23:16.847Z,16.30
2022-10-29T23:25:44.628Z,16.20
2022-10-29T23:28:13.776Z,16.20
2022-10-29T23:30:41.590Z,16.20
2022-10-29T23:33:09.365Z,16.20
2022-10-29T23:35:37.162Z,16.20
2022-10-29T23:38:05.002Z,16.10
2022-10-29T23:40:32.773Z,16.20
2022-10-29T23:43:00.550Z,16.20
2022-10-29T23:45:29.698Z,16.10
2022-10-29T23:47:57.744Z,16.10
2022-10-29T23:50:25.746Z,16.10
2022-10-29T23:52:53.551Z,16.10
2022-10-29T23:55:21.325Z,16.00
2022-10-29T23:57:49.146Z,16.00
